King's Park, China
Current Conditions -  °F | °C
As of 3:00 PM on Tuesday 21 Oct 2014 (Local Time) from VHHH Reporting Station
Few Clouds Few Clouds  
Wind Chill: 88°   Ceiling: Unl
Heat Index: 89°   Visibility: 6mi
Dew Point: 64°   Wind: 6mph
Humidity: 46%   Direction: 280°W
Pressure: 29.94"   Gusts: NA
Location:  22.32°N, 114.17°E
Report Text: VHHH 210700Z 28005KT 9999 FEW032 31/18 Q1014 NOSIG
Loading
Personal Weather Stations






























Interactive Weather Map
Tropical Storm Tracking
New forecast layout! Learn more

10-Day Weather Forecast

Advertisements
Track Severe Weather on mobile